< Cyclone 201407 2014 Season Cyclone 201409 >
Cyclone 201408 (Fletcher)
General InformationTrack Information on Google MapsDetailed Wind InformationList of All Images || ResourceGoogle EarthGE AnimationAtom FeedGeoJSON
Detalied Best Track (Time Zone = UTC)
Year Month Day Hour Lat. Long. Pressure (hPa) Wind (kt) Class Image Chart
2014 1 30 00 -13.5 129.3 1003 0 0 Image --
2014 1 30 06 -13.9 129.5 1000 0 0 Image --
2014 1 30 12 -13.7 129.7 1001 0 0 Image --
2014 1 30 18 -13.7 129.7 999 0 0 Image --
2014 1 31 00 -13.6 129.3 1000 0 0 Image --
2014 1 31 06 -13.9 129.3 998 0 0 Image --
2014 1 31 12 -13.9 129.9 998 0 0 Image --
2014 1 31 18 -14.0 131.1 998 0 0 Image --
2014 2 1 00 -14.4 132.0 1000 0 0 Image --
2014 2 1 03 -14.7 132.5 998 0 0 Image --
2014 2 1 06 -14.9 133.1 996 0 0 Image --
2014 2 1 12 -15.8 133.8 998 0 0 Image --
2014 2 1 18 -16.2 134.8 997 0 0 Image --
2014 2 1 21 -16.3 135.2 998 0 0 Image --
2014 2 2 00 -16.4 135.7 999 15 2 Image --
2014 2 2 03 -16.3 136.2 998 20 2 Image --
2014 2 2 06 -16.3 136.9 998 25 2 Image --
2014 2 2 12 -17.2 138.4 998 25 2 Image --
2014 2 2 15 -17.1 139.3 997 25 2 Image --
2014 2 2 18 -17.5 139.4 996 25 2 Image --
2014 2 2 21 -17.3 139.7 996 30 2 Image --
2014 2 2 22 -17.4 139.9 996 30 0 Image --
2014 2 2 23 -17.3 140.0 996 30 0 Image --
2014 2 3 00 -17.2 140.1 996 30 2 Image --
2014 2 3 01 -17.1 140.3 994.667 31.6667 0 Image --
2014 2 3 02 -17.0 140.5 993.333 33.3333 0 Image --
2014 2 3 03 -17.0 140.7 992 35 3 Image --
2014 2 3 04 -17.0 140.8 992 35 0 Image --
2014 2 3 05 -17.0 140.9 992 35 3 Image --
2014 2 3 06 -17.0 140.9 995 30 2 Image --
2014 2 3 07 -16.9 140.9 992 35 3 Image --
2014 2 3 08 -16.8 141.0 992 35 3 Image --
2014 2 3 09 -16.9 141.2 994 30 2 Image --
2014 2 3 12 -16.4 141.2 995 30 2 Image --
2014 2 3 15 -16.7 141.3 996 30 2 Image --
2014 2 3 18 -16.3 141.4 995 30 2 Image --
2014 2 3 21 -16.4 141.4 996 30 2 Image --
2014 2 4 00 -16.7 141.4 995 30 2 Image --
2014 2 4 03 -16.8 141.3 995 30 2 Image --
2014 2 4 06 -16.8 141.2 995 30 2 Image --
2014 2 4 09 -16.7 141.2 996 30 2 Image --
2014 2 4 12 -16.6 141.2 998 30 2 Image --
2014 2 4 15 -16.6 141.1 998 30 2 Image --
2014 2 4 18 -16.6 141.0 998 30 2 Image --
2014 2 4 21 -16.7 140.8 998 30 2 Image --
2014 2 5 00 -16.8 140.9 998 25 2 Image --
2014 2 5 03 -16.9 141.0 999 25 2 Image --
2014 2 5 06 -17.1 140.9 999 20 2 Image --
2014 2 6 12 -16.8 140.8 999 20 2 Image --
2014 2 7 00 -16.6 140.7 998.875 20.625 0 Image --
2014 2 7 03 -16.5 140.8 998.75 21.25 0 Image --
2014 2 7 06 -16.3 140.7 998.625 21.875 0 Image --
2014 2 7 12 -16.0 141.4 998.5 22.5 0 Image --
2014 2 7 18 -15.9 141.7 998.375 23.125 0 Image --
2014 2 8 00 -16.2 141.3 998.25 23.75 0 Image --
2014 2 8 06 -16.5 140.9 998.125 24.375 0 Image --
2014 2 8 09 -16.5 141.0 998 25 2 Image --
2014 2 8 15 -16.8 140.7 998 25 2 Image --
2014 2 8 18 -17.4 140.5 997 30 2 Image --
2014 2 9 00 -17.6 139.8 997.375 0 0 Image --
2014 2 9 06 -17.7 139.3 997.75 0 0 Image --
2014 2 9 09 -17.6 139.2 998.125 0 0 Image --
2014 2 9 12 -17.3 138.8 998.5 0 0 Image --
2014 2 9 15 -17.1 138.6 998.875 0 0 Image --
2014 2 9 18 -17.1 138.2 999.25 0 0 Image --
2014 2 9 23 -17.2 137.8 999.625 0 0 Image --
2014 2 10 12 -17.4 135.9 1000 0 0 Image --
2014 2 11 00 -18.3 134.2 1000 0 0 Image --
2014 2 11 12 -19.2 132.9 1000 0 0 Image --
2014 2 12 00 -21.2 131.0 999 0 0 Image --
< Cyclone 201407 2014 Season Cyclone 201409 >

Help